sensor_id;sensor_type;location;lat;lon;timestamp;temperature;humidity
11736;DHT22;5924;51.398;7.088;2023-04-06T00:01:07;-0.70;99.90
11736;DHT22;5924;51.398;7.088;2023-04-06T00:03:32;-0.70;99.90
11736;DHT22;5924;51.398;7.088;2023-04-06T00:05:58;-0.70;99.90
11736;DHT22;5924;51.398;7.088;2023-04-06T00:08:24;-0.80;99.90
11736;DHT22;5924;51.398;7.088;2023-04-06T00:10:50;-0.80;99.90
11736;DHT22;5924;51.398;7.088;2023-04-06T00:13:16;-0.80;99.90
11736;DHT22;5924;51.398;7.088;2023-04-06T00:15:42;-0.90;99.90
11736;DHT22;5924;51.398;7.088;2023-04-06T00:18:07;-1.30;99.90
11736;DHT22;5924;51.398;7.088;2023-04-06T00:20:33;-0.90;99.90
11736;DHT22;5924;51.398;7.088;2023-04-06T00:22:59;-0.80;99.90
11736;DHT22;5924;51.398;7.088;2023-04-06T00:25:25;-1.00;99.90
11736;DHT22;5924;51.398;7.088;2023-04-06T00:27:51;-1.00;99.90
11736;DHT22;5924;51.398;7.088;2023-04-06T00:30:16;0.20;99.90
11736;DHT22;5924;51.398;7.088;2023-04-06T00:32:42;-1.00;99.90
11736;DHT22;5924;51.398;7.088;2023-04-06T00:35:08;-1.00;99.90
11736;DHT22;5924;51.398;7.088;2023-04-06T00:37:34;-1.10;99.90
11736;DHT22;5924;51.398;7.088;2023-04-06T00:40:00;-1.10;99.90
11736;DHT22;5924;51.398;7.088;2023-04-06T00:42:26;-1.20;99.90
11736;DHT22;5924;51.398;7.088;2023-04-06T00:44:53;-1.20;99.90
11736;DHT22;5924;51.398;7.088;2023-04-06T00:47:19;-1.20;99.90
11736;DHT22;5924;51.398;7.088;2023-04-06T00:49:45;-1.20;99.90
11736;DHT22;5924;51.398;7.088;2023-04-06T00:52:10;-1.30;99.90
11736;DHT22;5924;51.398;7.088;2023-04-06T00:54:36;-1.30;99.90
11736;DHT22;5924;51.398;7.088;2023-04-06T00:57:02;-1.30;99.90
11736;DHT22;5924;51.398;7.088;2023-04-06T00:59:28;-1.40;99.90
11736;DHT22;5924;51.398;7.088;2023-04-06T01:01:54;-1.30;99.90
11736;DHT22;5924;51.398;7.088;2023-04-06T01:04:20;-1.40;99.90
11736;DHT22;5924;51.398;7.088;2023-04-06T01:06:48;-1.40;99.90
11736;DHT22;5924;51.398;7.088;2023-04-06T01:09:14;-1.50;99.90
11736;DHT22;5924;51.398;7.088;2023-04-06T01:11:40;-1.20;99.90
11736;DHT22;5924;51.398;7.088;2023-04-06T01:14:06;-1.20;99.90
11736;DHT22;5924;51.398;7.088;2023-04-06T01:16:31;-1.50;99.90
11736;DHT22;5924;51.398;7.088;2023-04-06T01:18:57;-1.50;99.90
11736;DHT22;5924;51.398;7.088;2023-04-06T01:21:23;-1.50;99.90
11736;DHT22;5924;51.398;7.088;2023-04-06T01:23:49;-1.50;99.90
11736;DHT22;5924;51.398;7.088;2023-04-06T01:26:14;-1.50;99.90
11736;DHT22;5924;51.398;7.088;2023-04-06T01:28:40;-1.50;99.90
11736;DHT22;5924;51.398;7.088;2023-04-06T01:31:09;-1.60;99.90
11736;DHT22;5924;51.398;7.088;2023-04-06T01:33:35;-1.60;99.90
11736;DHT22;5924;51.398;7.088;2023-04-06T01:36:02;-1.60;99.90
11736;DHT22;5924;51.398;7.088;2023-04-06T01:38:27;-1.60;99.90
11736;DHT22;5924;51.398;7.088;2023-04-06T01:40:53;-1.40;99.90
11736;DHT22;5924;51.398;7.088;2023-04-06T01:43:20;-1.30;99.90
11736;DHT22;5924;51.398;7.088;2023-04-06T01:45:45;-0.90;99.90
11736;DHT22;5924;51.398;7.088;2023-04-06T01:48:11;-1.60;99.90
11736;DHT22;5924;51.398;7.088;2023-04-06T01:50:37;-1.60;99.90
11736;DHT22;5924;51.398;7.088;2023-04-06T01:53:02;-1.60;99.90
11736;DHT22;5924;51.398;7.088;2023-04-06T01:55:28;-1.60;99.90
11736;DHT22;5924;51.398;7.088;2023-04-06T01:57:54;-1.60;99.90
11736;DHT22;5924;51.398;7.088;2023-04-06T02:00:19;-1.60;99.90
11736;DHT22;5924;51.398;7.088;2023-04-06T02:02:45;-1.60;99.90
11736;DHT22;5924;51.398;7.088;2023-04-06T02:05:11;-1.50;99.90
11736;DHT22;5924;51.398;7.088;2023-04-06T02:07:36;-1.60;99.90
11736;DHT22;5924;51.398;7.088;2023-04-06T02:10:03;-1.60;99.90
11736;DHT22;5924;51.398;7.088;2023-04-06T02:12:28;-1.60;99.90
11736;DHT22;5924;51.398;7.088;2023-04-06T02:14:54;-0.40;99.90
11736;DHT22;5924;51.398;7.088;2023-04-06T02:17:20;-1.30;99.90
11736;DHT22;5924;51.398;7.088;2023-04-06T02:19:46;-1.70;99.90
11736;DHT22;5924;51.398;7.088;2023-04-06T02:22:12;-1.70;99.90
11736;DHT22;5924;51.398;7.088;2023-04-06T02:24:37;-1.50;99.90
11736;DHT22;5924;51.398;7.088;2023-04-06T02:27:03;-1.70;99.90
11736;DHT22;5924;51.398;7.088;2023-04-06T02:29:29;-1.80;99.90
11736;DHT22;5924;51.398;7.088;2023-04-06T02:31:54;-1.80;99.90
11736;DHT22;5924;51.398;7.088;2023-04-06T02:34:20;-1.70;99.90
11736;DHT22;5924;51.398;7.088;2023-04-06T02:36:46;-1.80;99.90
11736;DHT22;5924;51.398;7.088;2023-04-06T02:39:12;-1.80;99.90
11736;DHT22;5924;51.398;7.088;2023-04-06T02:41:38;-1.70;99.90
11736;DHT22;5924;51.398;7.088;2023-04-06T02:44:06;-1.80;99.90
11736;DHT22;5924;51.398;7.088;2023-04-06T02:46:32;1.10;99.90
11736;DHT22;5924;51.398;7.088;2023-04-06T02:48:58;-1.70;99.90
11736;DHT22;5924;51.398;7.088;2023-04-06T02:51:26;-1.80;99.90
11736;DHT22;5924;51.398;7.088;2023-04-06T02:53:52;-1.80;99.90
11736;DHT22;5924;51.398;7.088;2023-04-06T02:56:18;-1.80;99.90
11736;DHT22;5924;51.398;7.088;2023-04-06T02:58:45;-1.80;99.90
11736;DHT22;5924;51.398;7.088;2023-04-06T03:01:11;-1.80;99.90
11736;DHT22;5924;51.398;7.088;2023-04-06T03:03:37;-1.80;99.90
11736;DHT22;5924;51.398;7.088;2023-04-06T03:06:02;-1.80;99.90
11736;DHT22;5924;51.398;7.088;2023-04-06T03:08:28;-1.80;99.90
11736;DHT22;5924;51.398;7.088;2023-04-06T03:10:54;-1.80;99.90
11736;DHT22;5924;51.398;7.088;2023-04-06T03:13:20;-1.80;99.90
11736;DHT22;5924;51.398;7.088;2023-04-06T03:15:46;-1.70;99.90
11736;DHT22;5924;51.398;7.088;2023-04-06T03:18:12;-1.80;99.90
11736;DHT22;5924;51.398;7.088;2023-04-06T03:20:37;-1.80;99.90
11736;DHT22;5924;51.398;7.088;2023-04-06T03:23:03;-1.80;99.90
11736;DHT22;5924;51.398;7.088;2023-04-06T03:25:29;-1.80;99.90
11736;DHT22;5924;51.398;7.088;2023-04-06T03:27:56;-1.90;99.90
11736;DHT22;5924;51.398;7.088;2023-04-06T03:30:21;-1.90;99.90
11736;DHT22;5924;51.398;7.088;2023-04-06T03:32:47;-1.90;99.90
11736;DHT22;5924;51.398;7.088;2023-04-06T03:35:13;-1.90;99.90
11736;DHT22;5924;51.398;7.088;2023-04-06T03:37:38;-1.90;99.90
11736;DHT22;5924;51.398;7.088;2023-04-06T03:40:05;-1.90;99.90
11736;DHT22;5924;51.398;7.088;2023-04-06T03:42:31;-2.00;99.90
11736;DHT22;5924;51.398;7.088;2023-04-06T03:44:58;-2.00;99.90
11736;DHT22;5924;51.398;7.088;2023-04-06T03:47:24;-1.70;99.90
11736;DHT22;5924;51.398;7.088;2023-04-06T03:49:50;-2.00;99.90
11736;DHT22;5924;51.398;7.088;2023-04-06T03:52:15;-2.00;99.90
11736;DHT22;5924;51.398;7.088;2023-04-06T03:54:41;-2.50;99.90
11736;DHT22;5924;51.398;7.088;2023-04-06T03:57:07;-2.00;99.90
11736;DHT22;5924;51.398;7.088;2023-04-06T03:59:32;-2.00;99.90
11736;DHT22;5924;51.398;7.088;2023-04-06T04:01:58;-2.00;99.90
11736;DHT22;5924;51.398;7.088;2023-04-06T04:04:24;-2.00;99.90
11736;DHT22;5924;51.398;7.088;2023-04-06T04:06:50;-2.00;99.90
11736;DHT22;5924;51.398;7.088;2023-04-06T04:09:15;-1.90;99.90
11736;DHT22;5924;51.398;7.088;2023-04-06T04:11:41;-1.90;99.90
11736;DHT22;5924;51.398;7.088;2023-04-06T04:14:07;-1.80;99.90
11736;DHT22;5924;51.398;7.088;2023-04-06T04:16:33;-2.00;99.90
11736;DHT22;5924;51.398;7.088;2023-04-06T04:18:58;-2.00;99.90
11736;DHT22;5924;51.398;7.088;2023-04-06T04:21:24;-2.00;99.90
11736;DHT22;5924;51.398;7.088;2023-04-06T04:23:51;-2.00;99.90
11736;DHT22;5924;51.398;7.088;2023-04-06T04:26:18;-1.80;99.90
11736;DHT22;5924;51.398;7.088;2023-04-06T04:28:44;-2.00;99.90
11736;DHT22;5924;51.398;7.088;2023-04-06T04:31:09;-1.80;99.90
11736;DHT22;5924;51.398;7.088;2023-04-06T04:33:35;-2.10;99.90
11736;DHT22;5924;51.398;7.088;2023-04-06T04:36:01;-2.10;99.90
11736;DHT22;5924;51.398;7.088;2023-04-06T04:38:27;-2.10;99.90
11736;DHT22;5924;51.398;7.088;2023-04-06T04:40:53;-2.10;99.90
11736;DHT22;5924;51.398;7.088;2023-04-06T04:43:18;-2.10;99.90
11736;DHT22;5924;51.398;7.088;2023-04-06T04:45:44;-2.10;99.90
11736;DHT22;5924;51.398;7.088;2023-04-06T04:48:10;-2.10;99.90
11736;DHT22;5924;51.398;7.088;2023-04-06T04:50:36;-2.10;99.90
11736;DHT22;5924;51.398;7.088;2023-04-06T04:53:02;-1.70;99.90
11736;DHT22;5924;51.398;7.088;2023-04-06T04:55:30;-2.00;99.90
11736;DHT22;5924;51.398;7.088;2023-04-06T04:57:56;-2.00;99.90
11736;DHT22;5924;51.398;7.088;2023-04-06T05:00:22;-2.00;99.90
11736;DHT22;5924;51.398;7.088;2023-04-06T05:02:47;-2.00;99.90
11736;DHT22;5924;51.398;7.088;2023-04-06T05:05:13;0.80;99.90
11736;DHT22;5924;51.398;7.088;2023-04-06T05:07:39;-2.00;99.90
11736;DHT22;5924;51.398;7.088;2023-04-06T05:10:05;-1.90;99.90
11736;DHT22;5924;51.398;7.088;2023-04-06T05:12:31;-1.90;99.90
11736;DHT22;5924;51.398;7.088;2023-04-06T05:14:57;-1.90;99.90
11736;DHT22;5924;51.398;7.088;2023-04-06T05:17:22;-1.80;99.90
11736;DHT22;5924;51.398;7.088;2023-04-06T05:19:48;-1.90;99.90
11736;DHT22;5924;51.398;7.088;2023-04-06T05:22:14;-1.80;99.90
11736;DHT22;5924;51.398;7.088;2023-04-06T05:24:43;-1.80;99.90
11736;DHT22;5924;51.398;7.088;2023-04-06T05:27:08;-1.80;99.90
11736;DHT22;5924;51.398;7.088;2023-04-06T05:29:34;-1.70;99.90
11736;DHT22;5924;51.398;7.088;2023-04-06T05:32:01;-1.70;99.90
11736;DHT22;5924;51.398;7.088;2023-04-06T05:34:26;-0.60;99.90
11736;DHT22;5924;51.398;7.088;2023-04-06T05:36:52;-1.60;99.90
11736;DHT22;5924;51.398;7.088;2023-04-06T05:39:18;-1.50;99.90
11736;DHT22;5924;51.398;7.088;2023-04-06T05:41:44;-1.40;99.90
11736;DHT22;5924;51.398;7.088;2023-04-06T05:44:10;-1.30;99.90
11736;DHT22;5924;51.398;7.088;2023-04-06T05:46:35;-1.30;99.90
11736;DHT22;5924;51.398;7.088;2023-04-06T05:49:01;-1.30;99.90
11736;DHT22;5924;51.398;7.088;2023-04-06T05:51:27;-1.20;99.90
11736;DHT22;5924;51.398;7.088;2023-04-06T05:53:52;-1.30;99.90
11736;DHT22;5924;51.398;7.088;2023-04-06T05:56:18;-1.20;99.90
11736;DHT22;5924;51.398;7.088;2023-04-06T05:58:44;-1.10;99.90
11736;DHT22;5924;51.398;7.088;2023-04-06T06:01:10;-1.10;99.90
11736;DHT22;5924;51.398;7.088;2023-04-06T06:03:35;-1.00;99.90
11736;DHT22;5924;51.398;7.088;2023-04-06T06:06:02;-0.90;99.90
11736;DHT22;5924;51.398;7.088;2023-04-06T06:08:28;-0.80;99.90
11736;DHT22;5924;51.398;7.088;2023-04-06T06:10:54;-0.70;99.90
11736;DHT22;5924;51.398;7.088;2023-04-06T06:13:21;-0.60;99.90
11736;DHT22;5924;51.398;7.088;2023-04-06T06:15:47;-0.50;99.90
11736;DHT22;5924;51.398;7.088;2023-04-06T06:18:13;-0.40;99.90
11736;DHT22;5924;51.398;7.088;2023-04-06T06:20:39;-0.20;99.90
11736;DHT22;5924;51.398;7.088;2023-04-06T06:23:04;0.00;99.90
11736;DHT22;5924;51.398;7.088;2023-04-06T06:25:30;0.10;99.90
11736;DHT22;5924;51.398;7.088;2023-04-06T06:27:56;0.20;99.90
11736;DHT22;5924;51.398;7.088;2023-04-06T06:30:22;0.50;99.90
11736;DHT22;5924;51.398;7.088;2023-04-06T06:32:49;0.40;99.90
11736;DHT22;5924;51.398;7.088;2023-04-06T06:35:15;0.50;99.90
11736;DHT22;5924;51.398;7.088;2023-04-06T06:37:40;0.60;99.90
11736;DHT22;5924;51.398;7.088;2023-04-06T06:40:07;-0.70;99.90
11736;DHT22;5924;51.398;7.088;2023-04-06T06:42:32;0.70;99.90
11736;DHT22;5924;51.398;7.088;2023-04-06T06:44:58;1.00;99.90
11736;DHT22;5924;51.398;7.088;2023-04-06T06:47:24;0.90;99.90
11736;DHT22;5924;51.398;7.088;2023-04-06T06:49:50;1.00;99.90
11736;DHT22;5924;51.398;7.088;2023-04-06T06:52:16;1.10;99.90
11736;DHT22;5924;51.398;7.088;2023-04-06T06:54:42;1.30;99.90
11736;DHT22;5924;51.398;7.088;2023-04-06T06:57:07;1.80;99.90
11736;DHT22;5924;51.398;7.088;2023-04-06T06:59:33;1.70;99.90
11736;DHT22;5924;51.398;7.088;2023-04-06T07:01:59;1.90;99.90
11736;DHT22;5924;51.398;7.088;2023-04-06T07:04:24;2.10;99.90
11736;DHT22;5924;51.398;7.088;2023-04-06T07:06:50;2.40;99.90
11736;DHT22;5924;51.398;7.088;2023-04-06T07:09:16;2.60;99.90
11736;DHT22;5924;51.398;7.088;2023-04-06T07:11:42;2.90;99.90
11736;DHT22;5924;51.398;7.088;2023-04-06T07:14:07;3.20;99.90
11736;DHT22;5924;51.398;7.088;2023-04-06T07:16:33;3.40;99.90
11736;DHT22;5924;51.398;7.088;2023-04-06T07:18:59;3.60;99.90
11736;DHT22;5924;51.398;7.088;2023-04-06T07:21:24;3.80;99.90
11736;DHT22;5924;51.398;7.088;2023-04-06T07:23:50;4.00;99.90
11736;DHT22;5924;51.398;7.088;2023-04-06T07:26:16;4.20;99.90
11736;DHT22;5924;51.398;7.088;2023-04-06T07:28:42;4.40;99.90
11736;DHT22;5924;51.398;7.088;2023-04-06T07:31:07;4.60;99.90
11736;DHT22;5924;51.398;7.088;2023-04-06T07:33:33;4.80;99.90
11736;DHT22;5924;51.398;7.088;2023-04-06T07:35:59;5.00;99.90
11736;DHT22;5924;51.398;7.088;2023-04-06T07:38:24;5.20;99.90
11736;DHT22;5924;51.398;7.088;2023-04-06T07:40:50;5.40;99.90
11736;DHT22;5924;51.398;7.088;2023-04-06T07:43:16;5.50;99.90
11736;DHT22;5924;51.398;7.088;2023-04-06T07:45:42;5.70;99.90
11736;DHT22;5924;51.398;7.088;2023-04-06T07:48:08;9.20;99.90
11736;DHT22;5924;51.398;7.088;2023-04-06T07:50:34;6.00;99.90
11736;DHT22;5924;51.398;7.088;2023-04-06T07:53:00;6.30;99.90
11736;DHT22;5924;51.398;7.088;2023-04-06T07:55:26;6.50;99.90
11736;DHT22;5924;51.398;7.088;2023-04-06T07:57:53;6.70;99.90
11736;DHT22;5924;51.398;7.088;2023-04-06T08:00:19;7.10;99.90
11736;DHT22;5924;51.398;7.088;2023-04-06T08:02:45;7.10;99.90
11736;DHT22;5924;51.398;7.088;2023-04-06T08:05:11;7.40;99.90
11736;DHT22;5924;51.398;7.088;2023-04-06T08:07:36;7.60;99.90
11736;DHT22;5924;51.398;7.088;2023-04-06T08:10:02;7.90;99.90
11736;DHT22;5924;51.398;7.088;2023-04-06T08:12:28;8.10;99.90
11736;DHT22;5924;51.398;7.088;2023-04-06T08:14:54;8.40;99.90
11736;DHT22;5924;51.398;7.088;2023-04-06T08:17:20;8.60;99.90
11736;DHT22;5924;51.398;7.088;2023-04-06T08:19:45;8.70;99.90
11736;DHT22;5924;51.398;7.088;2023-04-06T08:22:11;8.80;99.90
11736;DHT22;5924;51.398;7.088;2023-04-06T08:24:37;8.90;99.90
11736;DHT22;5924;51.398;7.088;2023-04-06T08:27:03;9.00;99.90
11736;DHT22;5924;51.398;7.088;2023-04-06T08:29:28;9.10;99.90
11736;DHT22;5924;51.398;7.088;2023-04-06T08:31:54;9.30;99.90
11736;DHT22;5924;51.398;7.088;2023-04-06T08:34:21;9.40;99.90
11736;DHT22;5924;51.398;7.088;2023-04-06T08:36:46;9.40;99.90
11736;DHT22;5924;51.398;7.088;2023-04-06T08:39:12;9.60;99.90
11736;DHT22;5924;51.398;7.088;2023-04-06T08:41:41;9.60;99.90
11736;DHT22;5924;51.398;7.088;2023-04-06T08:44:06;9.70;99.90
11736;DHT22;5924;51.398;7.088;2023-04-06T08:46:32;9.70;99.90
11736;DHT22;5924;51.398;7.088;2023-04-06T08:48:59;10.40;99.90
11736;DHT22;5924;51.398;7.088;2023-04-06T08:51:27;9.90;99.90
11736;DHT22;5924;51.398;7.088;2023-04-06T08:53:54;10.00;98.70
11736;DHT22;5924;51.398;7.088;2023-04-06T08:56:25;10.10;98.40
11736;DHT22;5924;51.398;7.088;2023-04-06T08:58:53;10.30;99.30
11736;DHT22;5924;51.398;7.088;2023-04-06T09:01:25;10.50;98.90
11736;DHT22;5924;51.398;7.088;2023-04-06T09:03:53;10.60;98.20
11736;DHT22;5924;51.398;7.088;2023-04-06T09:06:21;10.70;98.00
11736;DHT22;5924;51.398;7.088;2023-04-06T09:08:46;10.80;97.20
11736;DHT22;5924;51.398;7.088;2023-04-06T09:11:13;10.90;97.00
11736;DHT22;5924;51.398;7.088;2023-04-06T09:13:49;11.00;95.40
11736;DHT22;5924;51.398;7.088;2023-04-06T09:16:16;11.10;93.70
11736;DHT22;5924;51.398;7.088;2023-04-06T09:18:42;11.30;93.50
11736;DHT22;5924;51.398;7.088;2023-04-06T09:21:09;11.50;93.90
11736;DHT22;5924;51.398;7.088;2023-04-06T09:23:36;11.70;93.70
11736;DHT22;5924;51.398;7.088;2023-04-06T09:28:47;12.00;91.20
11736;DHT22;5924;51.398;7.088;2023-04-06T09:31:15;12.00;90.40
11736;DHT22;5924;51.398;7.088;2023-04-06T09:33:44;12.10;90.90
11736;DHT22;5924;51.398;7.088;2023-04-06T09:36:10;12.20;87.60
11736;DHT22;5924;51.398;7.088;2023-04-06T09:38:51;12.40;89.70
11736;DHT22;5924;51.398;7.088;2023-04-06T09:41:30;12.50;86.80
11736;DHT22;5924;51.398;7.088;2023-04-06T09:44:07;12.70;87.40
11736;DHT22;5924;51.398;7.088;2023-04-06T09:46:34;12.80;86.10
11736;DHT22;5924;51.398;7.088;2023-04-06T09:49:04;12.90;85.60
11736;DHT22;5924;51.398;7.088;2023-04-06T09:54:04;12.90;82.00
11736;DHT22;5924;51.398;7.088;2023-04-06T09:56:38;13.00;82.40
11736;DHT22;5924;51.398;7.088;2023-04-06T09:59:11;13.00;86.10
11736;DHT22;5924;51.398;7.088;2023-04-06T10:01:39;13.10;85.40
11736;DHT22;5924;51.398;7.088;2023-04-06T10:06:51;13.40;81.40
11736;DHT22;5924;51.398;7.088;2023-04-06T10:09:18;13.60;81.30
11736;DHT22;5924;51.398;7.088;2023-04-06T10:11:49;13.80;80.30
11736;DHT22;5924;51.398;7.088;2023-04-06T10:14:16;14.00;81.00
11736;DHT22;5924;51.398;7.088;2023-04-06T10:16:42;14.10;79.20
11736;DHT22;5924;51.398;7.088;2023-04-06T10:19:22;14.20;75.40
11736;DHT22;5924;51.398;7.088;2023-04-06T10:21:53;14.10;77.00
11736;DHT22;5924;51.398;7.088;2023-04-06T10:24:20;14.10;79.00
11736;DHT22;5924;51.398;7.088;2023-04-06T10:27:00;14.20;77.50
11736;DHT22;5924;51.398;7.088;2023-04-06T10:29:27;15.70;78.70
11736;DHT22;5924;51.398;7.088;2023-04-06T10:31:52;14.30;78.00
11736;DHT22;5924;51.398;7.088;2023-04-06T10:34:18;14.40;77.60
11736;DHT22;5924;51.398;7.088;2023-04-06T10:36:44;14.30;74.80
11736;DHT22;5924;51.398;7.088;2023-04-06T10:39:10;14.20;75.50
11736;DHT22;5924;51.398;7.088;2023-04-06T10:41:43;14.10;75.10
11736;DHT22;5924;51.398;7.088;2023-04-06T10:44:21;14.10;78.20
11736;DHT22;5924;51.398;7.088;2023-04-06T10:46:57;14.20;77.10
11736;DHT22;5924;51.398;7.088;2023-04-06T10:49:25;14.10;77.00
11736;DHT22;5924;51.398;7.088;2023-04-06T10:51:53;14.00;77.70
11736;DHT22;5924;51.398;7.088;2023-04-06T10:54:21;14.00;76.70
11736;DHT22;5924;51.398;7.088;2023-04-06T10:56:48;14.30;80.40
11736;DHT22;5924;51.398;7.088;2023-04-06T10:59:19;14.70;79.00
11736;DHT22;5924;51.398;7.088;2023-04-06T11:01:45;15.00;77.60
11736;DHT22;5924;51.398;7.088;2023-04-06T11:04:19;15.00;75.50
11736;DHT22;5924;51.398;7.088;2023-04-06T11:06:49;15.10;75.20
11736;DHT22;5924;51.398;7.088;2023-04-06T11:09:25;15.10;73.00
11736;DHT22;5924;51.398;7.088;2023-04-06T11:11:51;15.40;73.90
11736;DHT22;5924;51.398;7.088;2023-04-06T11:14:17;15.40;73.10
11736;DHT22;5924;51.398;7.088;2023-04-06T11:16:47;15.50;72.00
11736;DHT22;5924;51.398;7.088;2023-04-06T11:19:15;15.40;73.00
11736;DHT22;5924;51.398;7.088;2023-04-06T11:21:43;15.40;73.80
11736;DHT22;5924;51.398;7.088;2023-04-06T11:26:57;15.00;72.90
11736;DHT22;5924;51.398;7.088;2023-04-06T11:29:27;15.10;70.60
11736;DHT22;5924;51.398;7.088;2023-04-06T11:32:20;15.10;73.60
11736;DHT22;5924;51.398;7.088;2023-04-06T11:34:47;15.50;73.00
11736;DHT22;5924;51.398;7.088;2023-04-06T11:37:13;15.50;72.00
11736;DHT22;5924;51.398;7.088;2023-04-06T11:39:46;15.50;72.30
11736;DHT22;5924;51.398;7.088;2023-04-06T11:42:12;15.60;71.50
11736;DHT22;5924;51.398;7.088;2023-04-06T11:44:40;15.50;71.20
11736;DHT22;5924;51.398;7.088;2023-04-06T11:47:11;15.50;71.00
11736;DHT22;5924;51.398;7.088;2023-04-06T11:49:39;15.50;72.90
11736;DHT22;5924;51.398;7.088;2023-04-06T11:52:19;15.30;72.00
11736;DHT22;5924;51.398;7.088;2023-04-06T11:54:46;15.30;72.90
11736;DHT22;5924;51.398;7.088;2023-04-06T11:57:12;15.30;70.90
11736;DHT22;5924;51.398;7.088;2023-04-06T11:59:38;15.30;70.90
11736;DHT22;5924;51.398;7.088;2023-04-06T12:02:04;15.30;73.10
11736;DHT22;5924;51.398;7.088;2023-04-06T12:04:31;15.30;75.70
11736;DHT22;5924;51.398;7.088;2023-04-06T12:06:57;15.40;76.00
11736;DHT22;5924;51.398;7.088;2023-04-06T12:09:23;15.60;74.10
11736;DHT22;5924;51.398;7.088;2023-04-06T12:11:49;15.60;73.50
11736;DHT22;5924;51.398;7.088;2023-04-06T12:14:15;15.50;73.30
11736;DHT22;5924;51.398;7.088;2023-04-06T12:16:41;15.50;74.60
11736;DHT22;5924;51.398;7.088;2023-04-06T12:19:07;15.60;71.20
11736;DHT22;5924;51.398;7.088;2023-04-06T12:21:34;15.60;72.40
11736;DHT22;5924;51.398;7.088;2023-04-06T12:24:02;15.60;72.00
11736;DHT22;5924;51.398;7.088;2023-04-06T12:26:29;15.60;73.60
11736;DHT22;5924;51.398;7.088;2023-04-06T12:28:55;15.60;73.80
11736;DHT22;5924;51.398;7.088;2023-04-06T12:31:22;15.30;71.70
11736;DHT22;5924;51.398;7.088;2023-04-06T12:33:51;15.20;74.70
11736;DHT22;5924;51.398;7.088;2023-04-06T12:36:18;15.20;77.20
11736;DHT22;5924;51.398;7.088;2023-04-06T12:38:48;15.10;74.30
11736;DHT22;5924;51.398;7.088;2023-04-06T12:41:14;15.00;75.90
11736;DHT22;5924;51.398;7.088;2023-04-06T12:43:41;17.10;78.80
11736;DHT22;5924;51.398;7.088;2023-04-06T12:46:07;14.70;76.40
11736;DHT22;5924;51.398;7.088;2023-04-06T12:48:33;14.30;77.90
11736;DHT22;5924;51.398;7.088;2023-04-06T12:51:00;14.20;81.60
11736;DHT22;5924;51.398;7.088;2023-04-06T12:53:27;14.30;79.10
11736;DHT22;5924;51.398;7.088;2023-04-06T12:55:56;14.30;79.20
11736;DHT22;5924;51.398;7.088;2023-04-06T12:58:23;14.30;78.00
11736;DHT22;5924;51.398;7.088;2023-04-06T13:00:50;14.30;79.60
11736;DHT22;5924;51.398;7.088;2023-04-06T13:03:20;14.20;79.70
11736;DHT22;5924;51.398;7.088;2023-04-06T13:05:48;14.10;79.00
11736;DHT22;5924;51.398;7.088;2023-04-06T13:08:15;14.00;81.10
11736;DHT22;5924;51.398;7.088;2023-04-06T13:10:48;13.80;81.80
11736;DHT22;5924;51.398;7.088;2023-04-06T13:13:20;13.50;82.10
11736;DHT22;5924;51.398;7.088;2023-04-06T13:15:46;13.50;84.10
11736;DHT22;5924;51.398;7.088;2023-04-06T13:18:12;13.60;84.70
11736;DHT22;5924;51.398;7.088;2023-04-06T13:20:37;13.90;86.60
11736;DHT22;5924;51.398;7.088;2023-04-06T13:23:03;14.00;85.60
11736;DHT22;5924;51.398;7.088;2023-04-06T13:25:30;13.50;86.00
11736;DHT22;5924;51.398;7.088;2023-04-06T13:27:55;14.00;86.10
11736;DHT22;5924;51.398;7.088;2023-04-06T13:30:21;15.00;87.70
11736;DHT22;5924;51.398;7.088;2023-04-06T13:32:47;14.00;83.90
11736;DHT22;5924;51.398;7.088;2023-04-06T13:35:13;13.90;85.20
11736;DHT22;5924;51.398;7.088;2023-04-06T13:37:39;13.70;86.50
11736;DHT22;5924;51.398;7.088;2023-04-06T13:40:05;13.80;86.50
11736;DHT22;5924;51.398;7.088;2023-04-06T13:42:31;13.80;87.70
11736;DHT22;5924;51.398;7.088;2023-04-06T13:44:57;13.80;85.60
11736;DHT22;5924;51.398;7.088;2023-04-06T13:47:23;13.70;87.80
11736;DHT22;5924;51.398;7.088;2023-04-06T13:49:52;13.60;87.90
11736;DHT22;5924;51.398;7.088;2023-04-06T13:52:21;13.50;88.10
11736;DHT22;5924;51.398;7.088;2023-04-06T13:54:48;13.30;87.50
11736;DHT22;5924;51.398;7.088;2023-04-06T13:57:13;13.30;88.10
11736;DHT22;5924;51.398;7.088;2023-04-06T13:59:39;13.30;89.60
11736;DHT22;5924;51.398;7.088;2023-04-06T14:02:07;13.30;91.20
11736;DHT22;5924;51.398;7.088;2023-04-06T14:04:33;13.20;90.50
11736;DHT22;5924;51.398;7.088;2023-04-06T14:07:00;13.10;90.90
11736;DHT22;5924;51.398;7.088;2023-04-06T14:09:26;12.90;90.40
11736;DHT22;5924;51.398;7.088;2023-04-06T14:11:52;12.80;91.60
11736;DHT22;5924;51.398;7.088;2023-04-06T14:14:18;12.70;91.90
11736;DHT22;5924;51.398;7.088;2023-04-06T14:16:45;12.80;92.30
11736;DHT22;5924;51.398;7.088;2023-04-06T14:19:15;12.70;91.30
11736;DHT22;5924;51.398;7.088;2023-04-06T14:21:47;12.60;91.60
11736;DHT22;5924;51.398;7.088;2023-04-06T14:24:14;12.50;92.20
11736;DHT22;5924;51.398;7.088;2023-04-06T14:26:40;12.50;92.50
11736;DHT22;5924;51.398;7.088;2023-04-06T14:29:09;12.60;92.40
11736;DHT22;5924;51.398;7.088;2023-04-06T14:31:35;12.60;92.50
11736;DHT22;5924;51.398;7.088;2023-04-06T14:34:02;12.60;93.30
11736;DHT22;5924;51.398;7.088;2023-04-06T14:36:31;12.70;93.50
11736;DHT22;5924;51.398;7.088;2023-04-06T14:39:06;12.60;94.90
11736;DHT22;5924;51.398;7.088;2023-04-06T14:41:33;12.50;96.40
11736;DHT22;5924;51.398;7.088;2023-04-06T14:43:59;12.30;97.70
11736;DHT22;5924;51.398;7.088;2023-04-06T14:46:25;12.10;98.70
11736;DHT22;5924;51.398;7.088;2023-04-06T14:48:54;12.00;99.20
11736;DHT22;5924;51.398;7.088;2023-04-06T14:51:20;12.00;99.00
11736;DHT22;5924;51.398;7.088;2023-04-06T14:53:46;9.70;99.30
11736;DHT22;5924;51.398;7.088;2023-04-06T14:56:12;12.00;99.90
11736;DHT22;5924;51.398;7.088;2023-04-06T14:58:37;12.00;99.90
11736;DHT22;5924;51.398;7.088;2023-04-06T15:01:03;12.00;99.90
11736;DHT22;5924;51.398;7.088;2023-04-06T15:03:29;12.10;99.90
11736;DHT22;5924;51.398;7.088;2023-04-06T15:05:56;12.10;99.90
11736;DHT22;5924;51.398;7.088;2023-04-06T15:08:22;12.20;99.90
11736;DHT22;5924;51.398;7.088;2023-04-06T15:10:49;12.20;99.90
11736;DHT22;5924;51.398;7.088;2023-04-06T15:13:16;12.20;99.90
11736;DHT22;5924;51.398;7.088;2023-04-06T15:15:42;12.10;99.90
11736;DHT22;5924;51.398;7.088;2023-04-06T15:18:08;12.10;99.90
11736;DHT22;5924;51.398;7.088;2023-04-06T15:20:34;12.10;99.90
11736;DHT22;5924;51.398;7.088;2023-04-06T15:23:01;12.20;99.90
11736;DHT22;5924;51.398;7.088;2023-04-06T15:25:27;12.20;99.90
11736;DHT22;5924;51.398;7.088;2023-04-06T15:27:54;12.20;99.90
11736;DHT22;5924;51.398;7.088;2023-04-06T15:30:20;12.10;99.90
11736;DHT22;5924;51.398;7.088;2023-04-06T15:32:55;12.10;99.90
11736;DHT22;5924;51.398;7.088;2023-04-06T15:35:21;12.00;99.90
11736;DHT22;5924;51.398;7.088;2023-04-06T15:37:47;11.90;99.90
11736;DHT22;5924;51.398;7.088;2023-04-06T15:40:13;11.10;99.90
11736;DHT22;5924;51.398;7.088;2023-04-06T15:42:41;11.50;99.90
11736;DHT22;5924;51.398;7.088;2023-04-06T15:45:09;11.30;99.90
11736;DHT22;5924;51.398;7.088;2023-04-06T15:47:39;11.10;99.90
11736;DHT22;5924;51.398;7.088;2023-04-06T15:50:05;10.90;99.90
11736;DHT22;5924;51.398;7.088;2023-04-06T15:52:32;10.60;99.90
11736;DHT22;5924;51.398;7.088;2023-04-06T15:54:57;10.50;99.90
11736;DHT22;5924;51.398;7.088;2023-04-06T15:57:23;10.30;99.90